sensor_id;sensor_type;location;lat;lon;timestamp;P1;durP1;ratioP1;P2;durP2;ratioP2
3811;SDS011;1921;49.368;11.068;2023-04-02T00:02:45;49.00;;;44.10;;
3811;SDS011;1921;49.368;11.068;2023-04-02T00:08:26;48.93;;;44.23;;
3811;SDS011;1921;49.368;11.068;2023-04-02T00:11:05;49.27;;;44.37;;
3811;SDS011;1921;49.368;11.068;2023-04-02T00:13:40;49.20;;;44.50;;
3811;SDS011;1921;49.368;11.068;2023-04-02T00:16:11;49.60;;;44.80;;
3811;SDS011;1921;49.368;11.068;2023-04-02T00:18:49;49.27;;;44.47;;
3811;SDS011;1921;49.368;11.068;2023-04-02T00:21:20;49.30;;;44.53;;
3811;SDS011;1921;49.368;11.068;2023-04-02T00:23:53;49.73;;;44.93;;
3811;SDS011;1921;49.368;11.068;2023-04-02T00:26:36;49.33;;;44.63;;
3811;SDS011;1921;49.368;11.068;2023-04-02T00:29:06;49.63;;;44.73;;
3811;SDS011;1921;49.368;11.068;2023-04-02T00:31:37;49.50;;;44.70;;
3811;SDS011;1921;49.368;11.068;2023-04-02T00:34:07;49.30;;;44.50;;
3811;SDS011;1921;49.368;11.068;2023-04-02T00:36:43;49.37;;;44.37;;
3811;SDS011;1921;49.368;11.068;2023-04-02T00:39:21;49.50;;;44.60;;
3811;SDS011;1921;49.368;11.068;2023-04-02T00:41:52;49.20;;;44.37;;
3811;SDS011;1921;49.368;11.068;2023-04-02T00:44:28;49.87;;;44.97;;
3811;SDS011;1921;49.368;11.068;2023-04-02T00:47:10;50.00;;;44.80;;
3811;SDS011;1921;49.368;11.068;2023-04-02T00:49:45;49.57;;;44.67;;
3811;SDS011;1921;49.368;11.068;2023-04-02T00:52:13;49.70;;;44.80;;
3811;SDS011;1921;49.368;11.068;2023-04-02T00:54:49;49.50;;;44.60;;
3811;SDS011;1921;49.368;11.068;2023-04-02T00:57:26;49.87;;;44.80;;
3811;SDS011;1921;49.368;11.068;2023-04-02T01:02:36;50.30;;;45.20;;
3811;SDS011;1921;49.368;11.068;2023-04-02T01:13:35;49.50;;;44.70;;
3811;SDS011;1921;49.368;11.068;2023-04-02T01:19:47;49.97;;;45.07;;
3811;SDS011;1921;49.368;11.068;2023-04-02T01:21:56;49.60;;;44.53;;
3811;SDS011;1921;49.368;11.068;2023-04-02T01:24:33;50.27;;;45.07;;
3811;SDS011;1921;49.368;11.068;2023-04-02T01:27:03;49.77;;;44.87;;
3811;SDS011;1921;49.368;11.068;2023-04-02T01:29:41;50.43;;;45.23;;
3811;SDS011;1921;49.368;11.068;2023-04-02T01:32:15;50.20;;;45.20;;
3811;SDS011;1921;49.368;11.068;2023-04-02T01:34:46;50.30;;;45.20;;
3811;SDS011;1921;49.368;11.068;2023-04-02T01:37:32;50.77;;;45.57;;
3811;SDS011;1921;49.368;11.068;2023-04-02T01:43:19;49.97;;;45.00;;
3811;SDS011;1921;49.368;11.068;2023-04-02T01:45:56;50.47;;;45.47;;
3811;SDS011;1921;49.368;11.068;2023-04-02T01:48:23;50.17;;;45.07;;
3811;SDS011;1921;49.368;11.068;2023-04-02T01:50:54;49.97;;;44.93;;
3811;SDS011;1921;49.368;11.068;2023-04-02T01:53:23;51.60;;;46.40;;
3811;SDS011;1921;49.368;11.068;2023-04-02T01:55:53;50.13;;;45.13;;
3811;SDS011;1921;49.368;11.068;2023-04-02T01:58:23;49.60;;;44.77;;
3811;SDS011;1921;49.368;11.068;2023-04-02T02:00:59;50.83;;;45.50;;
3811;SDS011;1921;49.368;11.068;2023-04-02T02:03:27;50.47;;;45.47;;
3811;SDS011;1921;49.368;11.068;2023-04-02T02:05:53;49.87;;;44.87;;
3811;SDS011;1921;49.368;11.068;2023-04-02T02:08:22;51.40;;;45.60;;
3811;SDS011;1921;49.368;11.068;2023-04-02T02:11:09;51.30;;;46.10;;
3811;SDS011;1921;49.368;11.068;2023-04-02T02:13:44;50.10;;;45.10;;
3811;SDS011;1921;49.368;11.068;2023-04-02T02:16:21;50.30;;;45.40;;
3811;SDS011;1921;49.368;11.068;2023-04-02T02:18:51;50.30;;;44.80;;
3811;SDS011;1921;49.368;11.068;2023-04-02T02:21:37;50.00;;;45.10;;
3811;SDS011;1921;49.368;11.068;2023-04-02T02:29:48;49.97;;;45.10;;
3811;SDS011;1921;49.368;11.068;2023-04-02T02:32:21;50.20;;;45.13;;
3811;SDS011;1921;49.368;11.068;2023-04-02T02:35:00;50.27;;;45.37;;
3811;SDS011;1921;49.368;11.068;2023-04-02T02:37:49;50.73;;;45.27;;
3811;SDS011;1921;49.368;11.068;2023-04-02T02:40:35;50.00;;;45.10;;
3811;SDS011;1921;49.368;11.068;2023-04-02T02:43:10;50.23;;;45.23;;
3811;SDS011;1921;49.368;11.068;2023-04-02T02:45:38;49.57;;;44.77;;
3811;SDS011;1921;49.368;11.068;2023-04-02T02:48:09;50.37;;;45.50;;
3811;SDS011;1921;49.368;11.068;2023-04-02T02:50:39;55.30;;;46.23;;
3811;SDS011;1921;49.368;11.068;2023-04-02T02:53:15;50.53;;;45.57;;
3811;SDS011;1921;49.368;11.068;2023-04-02T02:55:46;50.30;;;45.30;;
3811;SDS011;1921;49.368;11.068;2023-04-02T02:58:17;50.63;;;45.63;;
3811;SDS011;1921;49.368;11.068;2023-04-02T03:00:56;51.60;;;46.30;;
3811;SDS011;1921;49.368;11.068;2023-04-02T03:03:23;50.63;;;45.60;;
3811;SDS011;1921;49.368;11.068;2023-04-02T03:05:54;51.17;;;45.77;;
3811;SDS011;1921;49.368;11.068;2023-04-02T03:08:31;50.37;;;45.40;;
3811;SDS011;1921;49.368;11.068;2023-04-02T03:11:10;50.97;;;45.87;;
3811;SDS011;1921;49.368;11.068;2023-04-02T03:13:41;50.90;;;45.70;;
3811;SDS011;1921;49.368;11.068;2023-04-02T03:16:13;50.77;;;45.67;;
3811;SDS011;1921;49.368;11.068;2023-04-02T03:18:53;50.20;;;45.00;;
3811;SDS011;1921;49.368;11.068;2023-04-02T03:21:42;51.03;;;45.50;;
3811;SDS011;1921;49.368;11.068;2023-04-02T03:24:38;52.00;;;46.40;;
3811;SDS011;1921;49.368;11.068;2023-04-02T03:27:13;50.37;;;45.47;;
3811;SDS011;1921;49.368;11.068;2023-04-02T03:30:03;49.30;;;44.60;;
3811;SDS011;1921;49.368;11.068;2023-04-02T03:32:57;50.77;;;45.67;;
3811;SDS011;1921;49.368;11.068;2023-04-02T03:35:53;50.50;;;45.50;;
3811;SDS011;1921;49.368;11.068;2023-04-02T03:38:30;51.07;;;46.07;;
3811;SDS011;1921;49.368;11.068;2023-04-02T03:43:47;51.23;;;45.97;;
3811;SDS011;1921;49.368;11.068;2023-04-02T03:49:05;52.20;;;45.67;;
3811;SDS011;1921;49.368;11.068;2023-04-02T03:54:26;50.90;;;45.70;;
3811;SDS011;1921;49.368;11.068;2023-04-02T03:56:52;50.53;;;45.43;;
3811;SDS011;1921;49.368;11.068;2023-04-02T04:02:23;50.63;;;45.63;;
3811;SDS011;1921;49.368;11.068;2023-04-02T04:04:50;50.43;;;45.33;;
3811;SDS011;1921;49.368;11.068;2023-04-02T04:07:27;50.60;;;45.60;;
3811;SDS011;1921;49.368;11.068;2023-04-02T04:10:04;50.13;;;45.33;;
3811;SDS011;1921;49.368;11.068;2023-04-02T04:12:38;50.50;;;45.40;;
3811;SDS011;1921;49.368;11.068;2023-04-02T04:15:15;50.33;;;45.50;;
3811;SDS011;1921;49.368;11.068;2023-04-02T04:18:31;50.40;;;45.40;;
3811;SDS011;1921;49.368;11.068;2023-04-02T04:24:05;50.60;;;45.60;;
3811;SDS011;1921;49.368;11.068;2023-04-02T04:26:54;50.07;;;45.17;;
3811;SDS011;1921;49.368;11.068;2023-04-02T04:32:43;50.47;;;45.37;;
3811;SDS011;1921;49.368;11.068;2023-04-02T04:35:29;50.97;;;45.83;;
3811;SDS011;1921;49.368;11.068;2023-04-02T04:38:03;50.40;;;45.40;;
3811;SDS011;1921;49.368;11.068;2023-04-02T04:40:41;50.40;;;45.40;;
3811;SDS011;1921;49.368;11.068;2023-04-02T04:43:19;51.40;;;46.13;;
3811;SDS011;1921;49.368;11.068;2023-04-02T04:46:04;51.03;;;45.83;;
3811;SDS011;1921;49.368;11.068;2023-04-02T04:51:32;51.07;;;45.87;;
3811;SDS011;1921;49.368;11.068;2023-04-02T04:54:12;50.90;;;45.80;;
3811;SDS011;1921;49.368;11.068;2023-04-02T04:56:40;50.43;;;45.37;;
3811;SDS011;1921;49.368;11.068;2023-04-02T05:02:10;50.50;;;45.40;;
3811;SDS011;1921;49.368;11.068;2023-04-02T05:04:40;50.90;;;45.70;;
3811;SDS011;1921;49.368;11.068;2023-04-02T05:07:13;49.97;;;44.87;;
3811;SDS011;1921;49.368;11.068;2023-04-02T05:09:46;50.60;;;45.40;;
3811;SDS011;1921;49.368;11.068;2023-04-02T05:12:55;50.90;;;45.30;;
3811;SDS011;1921;49.368;11.068;2023-04-02T05:15:31;50.07;;;45.03;;
3811;SDS011;1921;49.368;11.068;2023-04-02T05:18:06;50.30;;;45.20;;
3811;SDS011;1921;49.368;11.068;2023-04-02T05:21:21;50.07;;;44.97;;
3811;SDS011;1921;49.368;11.068;2023-04-02T05:26:49;49.90;;;44.80;;
3811;SDS011;1921;49.368;11.068;2023-04-02T05:29:22;49.97;;;44.87;;
3811;SDS011;1921;49.368;11.068;2023-04-02T05:32:12;50.63;;;45.43;;
3811;SDS011;1921;49.368;11.068;2023-04-02T05:34:51;50.50;;;45.50;;
3811;SDS011;1921;49.368;11.068;2023-04-02T05:37:25;50.23;;;45.13;;
3811;SDS011;1921;49.368;11.068;2023-04-02T05:39:54;49.77;;;44.87;;
3811;SDS011;1921;49.368;11.068;2023-04-02T05:42:28;49.90;;;45.00;;
3811;SDS011;1921;49.368;11.068;2023-04-02T05:47:49;50.20;;;45.17;;
3811;SDS011;1921;49.368;11.068;2023-04-02T05:50:25;50.47;;;45.43;;
3811;SDS011;1921;49.368;11.068;2023-04-02T05:52:58;50.93;;;45.63;;
3811;SDS011;1921;49.368;11.068;2023-04-02T05:55:40;50.33;;;45.20;;
3811;SDS011;1921;49.368;11.068;2023-04-02T05:58:16;50.47;;;45.37;;
3811;SDS011;1921;49.368;11.068;2023-04-02T06:01:04;50.77;;;45.57;;
3811;SDS011;1921;49.368;11.068;2023-04-02T06:06:46;51.13;;;45.83;;
3811;SDS011;1921;49.368;11.068;2023-04-02T06:09:26;51.33;;;46.17;;
3811;SDS011;1921;49.368;11.068;2023-04-02T06:15:20;50.07;;;45.20;;
3811;SDS011;1921;49.368;11.068;2023-04-02T06:20:23;51.10;;;45.80;;
3811;SDS011;1921;49.368;11.068;2023-04-02T06:22:50;51.03;;;45.90;;
3811;SDS011;1921;49.368;11.068;2023-04-02T06:25:36;50.90;;;45.90;;
3811;SDS011;1921;49.368;11.068;2023-04-02T06:28:25;51.60;;;46.40;;
3811;SDS011;1921;49.368;11.068;2023-04-02T06:31:11;52.10;;;46.60;;
3811;SDS011;1921;49.368;11.068;2023-04-02T06:33:52;52.03;;;46.80;;
3811;SDS011;1921;49.368;11.068;2023-04-02T06:36:20;51.50;;;46.10;;
3811;SDS011;1921;49.368;11.068;2023-04-02T06:38:53;51.27;;;46.10;;
3811;SDS011;1921;49.368;11.068;2023-04-02T06:41:26;52.30;;;46.90;;
3811;SDS011;1921;49.368;11.068;2023-04-02T06:43:59;52.00;;;46.70;;
3811;SDS011;1921;49.368;11.068;2023-04-02T06:46:42;52.23;;;46.93;;
3811;SDS011;1921;49.368;11.068;2023-04-02T06:51:59;51.17;;;46.10;;
3811;SDS011;1921;49.368;11.068;2023-04-02T06:54:28;52.57;;;47.10;;
3811;SDS011;1921;49.368;11.068;2023-04-02T06:56:54;52.13;;;46.83;;
3811;SDS011;1921;49.368;11.068;2023-04-02T06:59:20;51.70;;;46.50;;
3811;SDS011;1921;49.368;11.068;2023-04-02T07:01:51;52.43;;;46.93;;
3811;SDS011;1921;49.368;11.068;2023-04-02T07:04:30;52.00;;;46.67;;
3811;SDS011;1921;49.368;11.068;2023-04-02T07:06:57;52.83;;;47.37;;
3811;SDS011;1921;49.368;11.068;2023-04-02T07:09:23;53.30;;;47.60;;
3811;SDS011;1921;49.368;11.068;2023-04-02T07:11:49;52.67;;;47.20;;
3811;SDS011;1921;49.368;11.068;2023-04-02T07:14:15;52.47;;;47.00;;
3811;SDS011;1921;49.368;11.068;2023-04-02T07:16:41;53.33;;;47.63;;
3811;SDS011;1921;49.368;11.068;2023-04-02T07:19:14;53.20;;;46.70;;
3811;SDS011;1921;49.368;11.068;2023-04-02T07:21:45;52.33;;;46.83;;
3811;SDS011;1921;49.368;11.068;2023-04-02T07:24:12;53.43;;;47.83;;
3811;SDS011;1921;49.368;11.068;2023-04-02T07:26:38;53.13;;;47.53;;
3811;SDS011;1921;49.368;11.068;2023-04-02T07:29:05;54.80;;;48.47;;
3811;SDS011;1921;49.368;11.068;2023-04-02T07:31:33;53.60;;;47.80;;
3811;SDS011;1921;49.368;11.068;2023-04-02T07:33:59;52.93;;;47.53;;
3811;SDS011;1921;49.368;11.068;2023-04-02T07:36:26;54.33;;;48.60;;
3811;SDS011;1921;49.368;11.068;2023-04-02T07:38:54;52.70;;;47.20;;
3811;SDS011;1921;49.368;11.068;2023-04-02T07:41:20;54.57;;;48.77;;
3811;SDS011;1921;49.368;11.068;2023-04-02T07:43:47;53.03;;;47.50;;
3811;SDS011;1921;49.368;11.068;2023-04-02T07:46:13;52.17;;;46.70;;
3811;SDS011;1921;49.368;11.068;2023-04-02T07:48:40;53.30;;;47.80;;
3811;SDS011;1921;49.368;11.068;2023-04-02T07:51:40;53.40;;;47.83;;
3811;SDS011;1921;49.368;11.068;2023-04-02T07:53:59;54.00;;;47.90;;
3811;SDS011;1921;49.368;11.068;2023-04-02T07:56:25;53.10;;;47.60;;
3811;SDS011;1921;49.368;11.068;2023-04-02T07:58:53;52.80;;;47.30;;
3811;SDS011;1921;49.368;11.068;2023-04-02T08:01:20;53.17;;;47.67;;
3811;SDS011;1921;49.368;11.068;2023-04-02T08:03:49;52.50;;;47.00;;
3811;SDS011;1921;49.368;11.068;2023-04-02T08:06:16;53.53;;;47.93;;
3811;SDS011;1921;49.368;11.068;2023-04-02T08:08:42;51.77;;;46.47;;
3811;SDS011;1921;49.368;11.068;2023-04-02T08:11:08;52.47;;;46.97;;
3811;SDS011;1921;49.368;11.068;2023-04-02T08:13:35;70.83;;;48.47;;
3811;SDS011;1921;49.368;11.068;2023-04-02T08:16:01;52.17;;;46.77;;
3811;SDS011;1921;49.368;11.068;2023-04-02T08:18:28;51.80;;;46.50;;
3811;SDS011;1921;49.368;11.068;2023-04-02T08:20:55;53.03;;;47.40;;
3811;SDS011;1921;49.368;11.068;2023-04-02T08:23:21;51.40;;;46.17;;
3811;SDS011;1921;49.368;11.068;2023-04-02T08:25:48;51.93;;;46.73;;
3811;SDS011;1921;49.368;11.068;2023-04-02T08:28:14;52.60;;;47.20;;
3811;SDS011;1921;49.368;11.068;2023-04-02T08:30:40;52.80;;;47.20;;
3811;SDS011;1921;49.368;11.068;2023-04-02T08:33:07;53.13;;;47.60;;
3811;SDS011;1921;49.368;11.068;2023-04-02T08:35:32;52.60;;;47.10;;
3811;SDS011;1921;49.368;11.068;2023-04-02T08:37:58;52.70;;;47.00;;
3811;SDS011;1921;49.368;11.068;2023-04-02T08:40:31;52.20;;;46.80;;
3811;SDS011;1921;49.368;11.068;2023-04-02T08:43:04;52.63;;;47.23;;
3811;SDS011;1921;49.368;11.068;2023-04-02T08:49:03;52.03;;;46.63;;
3811;SDS011;1921;49.368;11.068;2023-04-02T08:51:38;50.83;;;45.63;;
3811;SDS011;1921;49.368;11.068;2023-04-02T08:56:51;49.40;;;44.50;;
3811;SDS011;1921;49.368;11.068;2023-04-02T08:59:34;48.73;;;44.07;;
3811;SDS011;1921;49.368;11.068;2023-04-02T09:02:19;48.77;;;44.07;;
3811;SDS011;1921;49.368;11.068;2023-04-02T09:05:04;47.80;;;43.30;;
3811;SDS011;1921;49.368;11.068;2023-04-02T09:07:40;48.07;;;43.57;;
3811;SDS011;1921;49.368;11.068;2023-04-02T09:10:10;48.30;;;43.60;;
3811;SDS011;1921;49.368;11.068;2023-04-02T09:12:44;48.73;;;44.03;;
3811;SDS011;1921;49.368;11.068;2023-04-02T09:15:16;49.30;;;44.20;;
3811;SDS011;1921;49.368;11.068;2023-04-02T09:18:11;48.90;;;44.10;;
3811;SDS011;1921;49.368;11.068;2023-04-02T09:20:40;48.67;;;44.07;;
3811;SDS011;1921;49.368;11.068;2023-04-02T09:23:17;48.27;;;43.67;;
3811;SDS011;1921;49.368;11.068;2023-04-02T09:25:47;50.10;;;44.70;;
3811;SDS011;1921;49.368;11.068;2023-04-02T09:28:20;48.17;;;43.47;;
3811;SDS011;1921;49.368;11.068;2023-04-02T09:33:46;48.30;;;43.77;;
3811;SDS011;1921;49.368;11.068;2023-04-02T09:36:16;47.83;;;43.33;;
3811;SDS011;1921;49.368;11.068;2023-04-02T09:38:58;47.90;;;43.40;;
3811;SDS011;1921;49.368;11.068;2023-04-02T09:41:31;48.77;;;43.97;;
3811;SDS011;1921;49.368;11.068;2023-04-02T09:46:55;48.10;;;43.50;;
3811;SDS011;1921;49.368;11.068;2023-04-02T09:49:34;47.73;;;43.23;;
3811;SDS011;1921;49.368;11.068;2023-04-02T09:54:45;48.47;;;43.83;;
3811;SDS011;1921;49.368;11.068;2023-04-02T09:57:44;48.20;;;43.60;;
3811;SDS011;1921;49.368;11.068;2023-04-02T10:00:22;48.37;;;43.77;;
3811;SDS011;1921;49.368;11.068;2023-04-02T10:08:37;50.37;;;45.43;;
3811;SDS011;1921;49.368;11.068;2023-04-02T10:11:13;48.40;;;43.80;;
3811;SDS011;1921;49.368;11.068;2023-04-02T10:13:55;48.07;;;43.47;;
3811;SDS011;1921;49.368;11.068;2023-04-02T10:16:37;48.20;;;43.60;;
3811;SDS011;1921;49.368;11.068;2023-04-02T10:19:16;48.30;;;43.50;;
3811;SDS011;1921;49.368;11.068;2023-04-02T10:21:48;47.93;;;43.33;;
3811;SDS011;1921;49.368;11.068;2023-04-02T10:24:16;47.83;;;43.23;;
3811;SDS011;1921;49.368;11.068;2023-04-02T10:27:00;48.20;;;43.60;;
3811;SDS011;1921;49.368;11.068;2023-04-02T10:30:11;47.63;;;43.13;;
3811;SDS011;1921;49.368;11.068;2023-04-02T10:32:45;47.87;;;43.30;;
3811;SDS011;1921;49.368;11.068;2023-04-02T10:40:47;47.93;;;43.33;;
3811;SDS011;1921;49.368;11.068;2023-04-02T10:43:29;47.70;;;43.17;;
3811;SDS011;1921;49.368;11.068;2023-04-02T10:55:47;48.00;;;43.30;;
3811;SDS011;1921;49.368;11.068;2023-04-02T10:58:24;48.63;;;43.63;;
3811;SDS011;1921;49.368;11.068;2023-04-02T11:00:55;48.00;;;43.30;;
3811;SDS011;1921;49.368;11.068;2023-04-02T11:09:03;48.20;;;43.50;;
3811;SDS011;1921;49.368;11.068;2023-04-02T11:11:37;48.53;;;43.83;;
3811;SDS011;1921;49.368;11.068;2023-04-02T11:14:14;48.60;;;43.80;;
3811;SDS011;1921;49.368;11.068;2023-04-02T11:16:49;48.50;;;43.80;;
3811;SDS011;1921;49.368;11.068;2023-04-02T11:21:43;48.40;;;43.70;;
3811;SDS011;1921;49.368;11.068;2023-04-02T11:24:54;48.47;;;43.73;;
3811;SDS011;1921;49.368;11.068;2023-04-02T11:32:46;48.00;;;43.40;;
3811;SDS011;1921;49.368;11.068;2023-04-02T11:37:49;48.07;;;43.47;;
3811;SDS011;1921;49.368;11.068;2023-04-02T11:43:48;49.43;;;44.60;;
3811;SDS011;1921;49.368;11.068;2023-04-02T11:48:53;48.13;;;43.53;;
3811;SDS011;1921;49.368;11.068;2023-04-02T11:54:19;48.03;;;43.43;;
3811;SDS011;1921;49.368;11.068;2023-04-02T11:56:55;48.63;;;43.93;;
3811;SDS011;1921;49.368;11.068;2023-04-02T12:02:29;48.60;;;44.00;;
3811;SDS011;1921;49.368;11.068;2023-04-02T12:05:09;48.30;;;43.70;;
3811;SDS011;1921;49.368;11.068;2023-04-02T12:08:34;48.27;;;43.67;;
3811;SDS011;1921;49.368;11.068;2023-04-02T12:11:45;47.67;;;43.17;;
3811;SDS011;1921;49.368;11.068;2023-04-02T12:17:12;47.70;;;43.30;;
3811;SDS011;1921;49.368;11.068;2023-04-02T12:19:46;47.60;;;43.20;;
3811;SDS011;1921;49.368;11.068;2023-04-02T12:22:21;47.63;;;43.20;;
3811;SDS011;1921;49.368;11.068;2023-04-02T12:24:52;47.67;;;43.17;;
3811;SDS011;1921;49.368;11.068;2023-04-02T12:27:24;47.67;;;43.20;;
3811;SDS011;1921;49.368;11.068;2023-04-02T12:30:15;48.20;;;43.63;;
3811;SDS011;1921;49.368;11.068;2023-04-02T12:32:42;47.87;;;43.27;;
3811;SDS011;1921;49.368;11.068;2023-04-02T12:35:41;47.93;;;43.43;;
3811;SDS011;1921;49.368;11.068;2023-04-02T12:38:00;51.53;;;43.77;;
3811;SDS011;1921;49.368;11.068;2023-04-02T12:40:26;47.90;;;43.40;;
3811;SDS011;1921;49.368;11.068;2023-04-02T12:42:53;47.60;;;43.20;;
3811;SDS011;1921;49.368;11.068;2023-04-02T12:45:22;48.10;;;43.60;;
3811;SDS011;1921;49.368;11.068;2023-04-02T12:47:57;48.07;;;43.57;;
3811;SDS011;1921;49.368;11.068;2023-04-02T12:50:26;48.27;;;43.77;;
3811;SDS011;1921;49.368;11.068;2023-04-02T12:52:52;48.40;;;43.90;;
3811;SDS011;1921;49.368;11.068;2023-04-02T12:55:23;47.87;;;43.47;;
3811;SDS011;1921;49.368;11.068;2023-04-02T12:57:59;48.30;;;43.80;;
3811;SDS011;1921;49.368;11.068;2023-04-02T13:00:29;48.30;;;43.80;;
3811;SDS011;1921;49.368;11.068;2023-04-02T13:03:01;48.33;;;43.73;;
3811;SDS011;1921;49.368;11.068;2023-04-02T13:05:45;47.33;;;43.03;;
3811;SDS011;1921;49.368;11.068;2023-04-02T13:11:09;47.83;;;43.43;;
3811;SDS011;1921;49.368;11.068;2023-04-02T13:13:35;47.70;;;43.30;;
3811;SDS011;1921;49.368;11.068;2023-04-02T13:18:39;49.10;;;44.50;;
3811;SDS011;1921;49.368;11.068;2023-04-02T13:23:40;48.07;;;43.60;;
3811;SDS011;1921;49.368;11.068;2023-04-02T13:31:35;48.53;;;44.00;;
3811;SDS011;1921;49.368;11.068;2023-04-02T13:34:01;48.73;;;44.23;;
3811;SDS011;1921;49.368;11.068;2023-04-02T13:36:27;48.07;;;43.67;;
3811;SDS011;1921;49.368;11.068;2023-04-02T13:38:53;48.53;;;44.00;;
3811;SDS011;1921;49.368;11.068;2023-04-02T13:41:26;47.43;;;43.13;;
3811;SDS011;1921;49.368;11.068;2023-04-02T13:43:56;49.20;;;44.50;;
3811;SDS011;1921;49.368;11.068;2023-04-02T13:46:26;48.67;;;44.17;;
3811;SDS011;1921;49.368;11.068;2023-04-02T13:48:54;47.50;;;43.20;;
3811;SDS011;1921;49.368;11.068;2023-04-02T13:51:22;48.90;;;44.40;;
3811;SDS011;1921;49.368;11.068;2023-04-02T13:54:01;47.43;;;43.13;;
3811;SDS011;1921;49.368;11.068;2023-04-02T13:56:31;48.03;;;43.63;;
3811;SDS011;1921;49.368;11.068;2023-04-02T13:58:57;48.10;;;43.50;;
3811;SDS011;1921;49.368;11.068;2023-04-02T14:01:23;47.90;;;43.50;;
3811;SDS011;1921;49.368;11.068;2023-04-02T14:03:50;47.60;;;43.30;;
3811;SDS011;1921;49.368;11.068;2023-04-02T14:06:28;48.53;;;44.00;;
3811;SDS011;1921;49.368;11.068;2023-04-02T14:30:57;48.27;;;43.60;;
3811;SDS011;1921;49.368;11.068;2023-04-02T14:36:50;48.70;;;44.23;;
3811;SDS011;1921;49.368;11.068;2023-04-02T14:39:48;48.50;;;44.13;;
3811;SDS011;1921;49.368;11.068;2023-04-02T14:42:33;47.17;;;42.97;;
3811;SDS011;1921;49.368;11.068;2023-04-02T14:51:35;48.03;;;43.80;;
3811;SDS011;1921;49.368;11.068;2023-04-02T14:54:13;47.80;;;43.43;;
3811;SDS011;1921;49.368;11.068;2023-04-02T14:56:53;47.77;;;43.47;;
3811;SDS011;1921;49.368;11.068;2023-04-02T15:02:00;47.93;;;43.63;;
3811;SDS011;1921;49.368;11.068;2023-04-02T15:04:42;47.37;;;43.27;;
3811;SDS011;1921;49.368;11.068;2023-04-02T15:07:32;47.67;;;43.37;;
3811;SDS011;1921;49.368;11.068;2023-04-02T15:12:54;48.10;;;43.70;;
3811;SDS011;1921;49.368;11.068;2023-04-02T15:18:18;47.10;;;43.00;;
3811;SDS011;1921;49.368;11.068;2023-04-02T15:20:59;46.70;;;42.60;;
3811;SDS011;1921;49.368;11.068;2023-04-02T15:29:44;47.20;;;43.00;;
3811;SDS011;1921;49.368;11.068;2023-04-02T15:35:11;47.60;;;43.40;;
3811;SDS011;1921;49.368;11.068;2023-04-02T15:37:54;48.33;;;44.03;;
3811;SDS011;1921;49.368;11.068;2023-04-02T15:52:17;47.10;;;43.00;;
3811;SDS011;1921;49.368;11.068;2023-04-02T15:54:58;47.53;;;43.33;;
3811;SDS011;1921;49.368;11.068;2023-04-02T16:01:28;47.60;;;43.27;;
3811;SDS011;1921;49.368;11.068;2023-04-02T16:12:30;47.27;;;43.17;;
3811;SDS011;1921;49.368;11.068;2023-04-02T16:15:03;46.77;;;42.77;;
3811;SDS011;1921;49.368;11.068;2023-04-02T16:17:47;47.10;;;43.00;;
3811;SDS011;1921;49.368;11.068;2023-04-02T16:20:29;47.53;;;43.43;;
3811;SDS011;1921;49.368;11.068;2023-04-02T16:23:05;47.10;;;43.00;;
3811;SDS011;1921;49.368;11.068;2023-04-02T16:34:58;47.73;;;43.50;;
3811;SDS011;1921;49.368;11.068;2023-04-02T16:40:37;47.77;;;43.57;;
3811;SDS011;1921;49.368;11.068;2023-04-02T16:43:39;47.23;;;43.03;;
3811;SDS011;1921;49.368;11.068;2023-04-02T16:46:11;46.73;;;42.83;;
3811;SDS011;1921;49.368;11.068;2023-04-02T16:54:58;47.83;;;43.53;;
3811;SDS011;1921;49.368;11.068;2023-04-02T16:57:35;47.43;;;43.23;;
3811;SDS011;1921;49.368;11.068;2023-04-02T17:00:43;47.33;;;43.33;;
3811;SDS011;1921;49.368;11.068;2023-04-02T17:06:27;47.10;;;43.10;;
3811;SDS011;1921;49.368;11.068;2023-04-02T17:09:12;46.60;;;42.70;;
3811;SDS011;1921;49.368;11.068;2023-04-02T17:11:50;47.70;;;43.60;;
3811;SDS011;1921;49.368;11.068;2023-04-02T17:15:02;47.40;;;43.30;;
3811;SDS011;1921;49.368;11.068;2023-04-02T17:17:41;46.80;;;42.70;;
3811;SDS011;1921;49.368;11.068;2023-04-02T17:20:12;47.90;;;43.70;;
3811;SDS011;1921;49.368;11.068;2023-04-02T17:22:47;46.43;;;42.53;;
3811;SDS011;1921;49.368;11.068;2023-04-02T17:25:18;47.23;;;43.13;;
3811;SDS011;1921;49.368;11.068;2023-04-02T17:28:11;47.40;;;43.37;;
3811;SDS011;1921;49.368;11.068;2023-04-02T17:30:49;46.60;;;42.60;;
3811;SDS011;1921;49.368;11.068;2023-04-02T17:33:19;47.33;;;43.23;;
3811;SDS011;1921;49.368;11.068;2023-04-02T17:38:38;47.40;;;43.30;;
3811;SDS011;1921;49.368;11.068;2023-04-02T17:49:52;47.47;;;43.33;;
3811;SDS011;1921;49.368;11.068;2023-04-02T17:59:31;46.87;;;42.93;;
3811;SDS011;1921;49.368;11.068;2023-04-02T18:05:16;46.97;;;42.97;;
3811;SDS011;1921;49.368;11.068;2023-04-02T18:10:55;47.47;;;43.27;;
3811;SDS011;1921;49.368;11.068;2023-04-02T18:23:01;47.83;;;43.63;;
3811;SDS011;1921;49.368;11.068;2023-04-02T18:29:06;47.70;;;43.60;;
3811;SDS011;1921;49.368;11.068;2023-04-02T18:40:33;47.07;;;43.07;;
3811;SDS011;1921;49.368;11.068;2023-04-02T18:46:34;47.40;;;43.50;;
3811;SDS011;1921;49.368;11.068;2023-04-02T18:52:10;47.90;;;43.50;;
3811;SDS011;1921;49.368;11.068;2023-04-02T18:54:43;48.80;;;44.53;;
3811;SDS011;1921;49.368;11.068;2023-04-02T18:57:18;46.80;;;42.90;;
3811;SDS011;1921;49.368;11.068;2023-04-02T19:02:32;47.20;;;43.20;;
3811;SDS011;1921;49.368;11.068;2023-04-02T19:08:41;47.87;;;43.97;;
3811;SDS011;1921;49.368;11.068;2023-04-02T19:11:34;46.90;;;43.00;;
3811;SDS011;1921;49.368;11.068;2023-04-02T19:14:01;47.90;;;43.90;;
3811;SDS011;1921;49.368;11.068;2023-04-02T19:26:05;48.00;;;43.70;;
3811;SDS011;1921;49.368;11.068;2023-04-02T19:28:52;46.63;;;42.83;;
3811;SDS011;1921;49.368;11.068;2023-04-02T19:31:48;47.50;;;43.60;;
3811;SDS011;1921;49.368;11.068;2023-04-02T19:37:28;47.43;;;43.53;;
3811;SDS011;1921;49.368;11.068;2023-04-02T19:40:16;48.27;;;44.17;;
3811;SDS011;1921;49.368;11.068;2023-04-02T19:42:53;46.27;;;42.60;;
3811;SDS011;1921;49.368;11.068;2023-04-02T19:48:07;46.97;;;42.97;;
3811;SDS011;1921;49.368;11.068;2023-04-02T19:50:39;46.40;;;42.60;;
3811;SDS011;1921;49.368;11.068;2023-04-02T19:53:05;45.90;;;42.20;;
3811;SDS011;1921;49.368;11.068;2023-04-02T19:55:31;45.90;;;42.30;;
3811;SDS011;1921;49.368;11.068;2023-04-02T19:57:57;46.60;;;42.77;;
3811;SDS011;1921;49.368;11.068;2023-04-02T20:00:23;45.90;;;42.20;;
3811;SDS011;1921;49.368;11.068;2023-04-02T20:02:49;47.40;;;43.50;;
3811;SDS011;1921;49.368;11.068;2023-04-02T20:05:14;47.27;;;43.37;;
3811;SDS011;1921;49.368;11.068;2023-04-02T20:10:09;47.40;;;43.30;;
3811;SDS011;1921;49.368;11.068;2023-04-02T20:12:35;47.30;;;43.40;;
3811;SDS011;1921;49.368;11.068;2023-04-02T20:15:02;45.30;;;41.60;;
3811;SDS011;1921;49.368;11.068;2023-04-02T20:17:29;45.33;;;41.63;;
3811;SDS011;1921;49.368;11.068;2023-04-02T20:19:55;45.90;;;42.10;;
3811;SDS011;1921;49.368;11.068;2023-04-02T20:22:21;47.10;;;43.20;;
3811;SDS011;1921;49.368;11.068;2023-04-02T20:24:47;46.20;;;42.40;;
3811;SDS011;1921;49.368;11.068;2023-04-02T20:27:13;46.40;;;42.60;;
3811;SDS011;1921;49.368;11.068;2023-04-02T20:29:39;47.17;;;43.20;;
3811;SDS011;1921;49.368;11.068;2023-04-02T20:32:06;47.23;;;42.83;;
3811;SDS011;1921;49.368;11.068;2023-04-02T20:34:33;45.40;;;41.80;;
3811;SDS011;1921;49.368;11.068;2023-04-02T20:36:59;46.17;;;42.30;;
3811;SDS011;1921;49.368;11.068;2023-04-02T20:39:25;46.17;;;42.47;;